Time;durP1;ratioP1;P1;durP2;ratioP2;P2;SDS_P1;SDS_P2;PMS_P1;PMS_P2;Temp;Humidity;BMP_temperature;BMP_pressure;BME280_temperature;BME280_humidity;BME280_pressure;Samples;Min_cycle;Max_cycle;Signal;HPM_P1;HPM_P2
2023/06/13 00:00:48;;;;;;;;;;;;;;;17.13;47.91;100341.06;5056363;28;1104;-50
2023/06/13 00:03:14;;;;;;;;;;;;;;;16.88;47.46;100334.63;5056808;28;981;-54
2023/06/13 00:05:45;;;;;;;;;;;;;;;16.70;46.98;100339.69;5056358;28;1144;-56
2023/06/13 00:08:17;;;;;;;;;;;;;;;16.64;46.28;100320.81;5036752;28;1053;-54
2023/06/13 00:10:46;;;;;;;;;;;;;;;16.59;45.75;100332.63;5056714;28;1096;-54
2023/06/13 00:13:13;;;;;;;;;;;;;;;16.87;46.78;100320.09;5055454;28;1170;-49
2023/06/13 00:15:41;;;;;;;;;;;;;;;16.90;47.31;100325.03;5054322;28;1068;-55
2023/06/13 00:18:06;;;;;;;;;;;;;;;16.69;47.12;100329.84;5045333;28;1906;-54
2023/06/13 00:20:33;;;;;;;;;;;;;;;16.71;46.12;100316.63;5053486;28;1159;-54
2023/06/13 00:22:58;;;;;;;;;;;;;;;16.57;45.99;100321.13;5045193;28;1032;-55
2023/06/13 00:25:24;;;;;;;;;;;;;;;16.63;45.89;100328.22;5056099;28;1107;-53
2023/06/13 00:27:49;;;;;;;;;;;;;;;17.06;46.94;100333.97;5056256;28;1036;-55
2023/06/13 00:30:15;;;;;;;;;;;;;;;16.69;46.76;100329.84;5021820;28;1297;-55
2023/06/13 00:32:40;;;;;;;;;;;;;;;16.66;46.09;100332.31;5056015;28;1191;-56
2023/06/13 00:35:08;;;;;;;;;;;;;;;16.56;46.01;100330.47;5022623;28;1288;-52
2023/06/13 00:37:34;;;;;;;;;;;;;;;17.56;47.38;100325.53;5045008;28;1918;-53
2023/06/13 00:39:59;;;;;;;;;;;;;;;16.99;47.58;100341.72;5056098;28;1113;-54
2023/06/13 00:42:27;;;;;;;;;;;;;;;16.87;46.84;100341.22;5028609;28;1131;-52
2023/06/13 00:44:53;;;;;;;;;;;;;;;16.76;46.32;100341.31;5044287;28;1206;-53
2023/06/13 00:47:19;;;;;;;;;;;;;;;16.66;45.61;100335.06;5055972;28;1140;-54
2023/06/13 00:49:44;;;;;;;;;;;;;;;16.56;45.35;100325.81;5037815;28;1032;-54
2023/06/13 00:52:10;;;;;;;;;;;;;;;16.57;45.10;100332.09;5038186;28;1166;-54
2023/06/13 00:54:40;;;;;;;;;;;;;;;17.12;46.23;100329.25;5021186;28;2083;-58
2023/06/13 00:57:06;;;;;;;;;;;;;;;16.85;47.18;100337.97;5038442;28;1914;-57
2023/06/13 00:59:31;;;;;;;;;;;;;;;16.73;46.21;100341.06;5021355;28;1048;-57
2023/06/13 01:01:57;;;;;;;;;;;;;;;16.62;45.86;100334.00;5045814;28;1111;-56
2023/06/13 01:04:22;;;;;;;;;;;;;;;16.63;45.38;100338.38;5056097;28;1048;-57
2023/06/13 01:06:49;;;;;;;;;;;;;;;16.48;45.43;100339.28;5046710;28;1084;-57
2023/06/13 01:09:16;;;;;;;;;;;;;;;16.43;45.08;100331.91;5049044;28;1084;-57
2023/06/13 01:11:56;;;;;;;;;;;;;;;17.69;46.83;100335.00;5001877;28;1151;-56
2023/06/13 01:14:30;;;;;;;;;;;;;;;16.93;47.57;100337.38;5036209;28;1083;-57
2023/06/13 01:16:58;;;;;;;;;;;;;;;16.67;46.83;100354.00;5055667;28;1988;-57
2023/06/13 01:19:31;;;;;;;;;;;;;;;17.44;47.58;100342.41;5021446;28;1227;-55
2023/06/13 01:21:57;;;;;;;;;;;;;;;16.95;47.21;100345.34;5028072;28;912;-57
2023/06/13 01:24:30;;;;;;;;;;;;;;;16.84;47.07;100336.31;5041818;28;1060;-59
2023/06/13 01:26:57;;;;;;;;;;;;;;;17.25;47.80;100336.00;5025144;28;1662;-59
2023/06/13 01:29:22;;;;;;;;;;;;;;;16.95;47.37;100348.88;5041851;28;1509;-58
2023/06/13 01:31:53;;;;;;;;;;;;;;;16.87;46.25;100339.31;5041648;28;1146;-59
2023/06/13 01:34:18;;;;;;;;;;;;;;;17.60;47.35;100331.28;5032350;28;849;-58
2023/06/13 01:36:44;;;;;;;;;;;;;;;17.08;47.36;100345.50;5023558;28;1918;-58
2023/06/13 01:39:09;;;;;;;;;;;;;;;16.87;46.85;100353.06;5059341;28;1144;-56
2023/06/13 01:41:35;;;;;;;;;;;;;;;16.84;46.03;100352.78;5059203;28;1028;-56
2023/06/13 01:44:01;;;;;;;;;;;;;;;16.75;45.68;100353.41;5059207;28;1040;-56
2023/06/13 01:46:27;;;;;;;;;;;;;;;16.72;45.49;100351.22;5027583;28;1545;-55
2023/06/13 01:49:12;;;;;;;;;;;;;;;16.62;45.36;100345.81;5041097;28;1088;-53
2023/06/13 01:51:58;;;;;;;;;;;;;;;17.48;46.20;100350.09;5058861;28;1091;-57
2023/06/13 01:54:25;;;;;;;;;;;;;;;16.85;46.67;100366.22;5058763;28;1088;-60
2023/06/13 01:56:52;;;;;;;;;;;;;;;16.75;46.33;100367.13;5040358;28;1968;-58
2023/06/13 01:59:18;;;;;;;;;;;;;;;16.58;45.62;100372.19;5027813;28;1199;-57
2023/06/13 02:01:44;;;;;;;;;;;;;;;16.63;45.46;100372.13;5040763;28;1239;-58
2023/06/13 02:04:10;;;;;;;;;;;;;;;17.41;46.30;100355.94;5058818;28;1171;-61
2023/06/13 02:06:36;;;;;;;;;;;;;;;17.32;47.48;100363.16;5041028;28;1060;-58
2023/06/13 02:09:03;;;;;;;;;;;;;;;16.97;46.96;100374.16;5048447;28;1052;-59
2023/06/13 02:11:29;;;;;;;;;;;;;;;16.84;46.41;100369.28;5058659;28;1031;-59
2023/06/13 02:13:55;;;;;;;;;;;;;;;16.75;46.07;100364.38;5058368;28;1024;-58
2023/06/13 02:16:25;;;;;;;;;;;;;;;16.72;45.67;100378.69;5040799;28;1307;-57
2023/06/13 02:18:53;;;;;;;;;;;;;;;16.65;45.16;100377.34;5027300;28;1985;-58
2023/06/13 02:21:19;;;;;;;;;;;;;;;17.40;46.42;100381.75;5039947;28;1083;-57
2023/06/13 02:23:44;;;;;;;;;;;;;;;17.31;47.19;100389.81;5027287;28;1526;-58
2023/06/13 02:26:10;;;;;;;;;;;;;;;16.90;47.05;100373.63;5058482;28;1124;-58
2023/06/13 02:28:35;;;;;;;;;;;;;;;16.80;46.34;100387.41;5058484;28;1176;-59
2023/06/13 02:31:01;;;;;;;;;;;;;;;16.77;45.91;100381.41;5040370;28;1285;-58
2023/06/13 02:33:30;;;;;;;;;;;;;;;16.73;45.32;100391.31;5055260;28;1063;-57
2023/06/13 02:35:55;;;;;;;;;;;;;;;16.58;45.38;100383.16;5046788;28;1092;-59
2023/06/13 02:38:21;;;;;;;;;;;;;;;16.56;44.89;100385.34;5058210;28;1993;-57
2023/06/13 02:40:46;;;;;;;;;;;;;;;17.23;46.40;100390.44;5057848;28;1071;-55
2023/06/13 02:43:12;;;;;;;;;;;;;;;16.83;46.26;100395.91;5045168;28;1151;-54
2023/06/13 02:45:37;;;;;;;;;;;;;;;16.74;45.98;100392.94;5057822;28;1171;-55
2023/06/13 02:48:03;;;;;;;;;;;;;;;16.61;45.54;100396.31;5036321;28;1235;-56
2023/06/13 02:50:29;;;;;;;;;;;;;;;17.63;46.46;100399.44;5036679;28;1336;-56
2023/06/13 02:52:54;;;;;;;;;;;;;;;17.01;46.80;100399.94;5037446;28;1156;-55
2023/06/13 02:55:20;;;;;;;;;;;;;;;16.81;46.42;100411.03;5036653;28;1312;-55
2023/06/13 02:57:46;;;;;;;;;;;;;;;17.16;46.82;100412.72;5033809;28;1922;-56
2023/06/13 03:00:12;;;;;;;;;;;;;;;17.26;47.52;100409.94;5025282;28;1181;-56
2023/06/13 03:02:43;;;;;;;;;;;;;;;16.98;46.93;100413.41;5035736;28;1284;-55
2023/06/13 03:05:10;;;;;;;;;;;;;;;16.81;46.32;100406.34;5017082;28;1161;-52
2023/06/13 03:07:42;;;;;;;;;;;;;;;16.76;45.69;100417.38;5033501;28;1149;-53
2023/06/13 03:10:08;;;;;;;;;;;;;;;16.70;45.39;100419.31;5035994;28;1256;-53
2023/06/13 03:12:38;;;;;;;;;;;;;;;16.64;45.23;100425.94;5018578;28;1272;-51
2023/06/13 03:15:04;;;;;;;;;;;;;;;16.64;44.70;100428.69;5016436;28;1132;-51
2023/06/13 03:17:31;;;;;;;;;;;;;;;16.56;44.91;100418.28;5030865;28;1910;-56
2023/06/13 03:19:56;;;;;;;;;;;;;;;16.90;45.53;100423.06;5017202;28;1273;-53
2023/06/13 03:22:22;;;;;;;;;;;;;;;17.03;46.48;100405.97;5022016;28;1183;-55
2023/06/13 03:24:48;;;;;;;;;;;;;;;16.77;46.15;100428.09;5027287;28;1127;-55
2023/06/13 03:27:14;;;;;;;;;;;;;;;16.62;46.03;100432.81;5035665;28;1328;-57
2023/06/13 03:29:42;;;;;;;;;;;;;;;16.61;45.63;100426.50;5035716;28;1442;-58
2023/06/13 03:32:08;;;;;;;;;;;;;;;17.03;45.95;100427.94;5035742;28;1235;-59
2023/06/13 03:34:38;;;;;;;;;;;;;;;17.05;46.95;100435.91;5035359;28;1145;-59
2023/06/13 03:37:07;;;;;;;;;;;;;;;16.89;46.22;100432.44;5016925;28;1979;-58
2023/06/13 03:39:33;;;;;;;;;;;;;;;16.61;46.12;100421.03;5028100;28;1322;-58
2023/06/13 03:41:59;;;;;;;;;;;;;;;16.67;45.45;100422.63;5035865;28;1139;-58
2023/06/13 03:44:25;;;;;;;;;;;;;;;16.52;45.20;100434.53;5035274;28;1210;-58
2023/06/13 03:46:51;;;;;;;;;;;;;;;16.56;44.87;100426.53;5030948;28;1063;-58
2023/06/13 03:49:18;;;;;;;;;;;;;;;16.42;45.06;100429.06;5027821;28;1147;-58
2023/06/13 03:51:44;;;;;;;;;;;;;;;16.50;44.59;100438.66;5036804;28;1134;-59
2023/06/13 03:54:09;;;;;;;;;;;;;;;16.55;44.43;100433.13;5035539;28;1213;-58
2023/06/13 03:56:35;;;;;;;;;;;;;;;16.71;45.14;100434.69;5035243;28;1072;-62
2023/06/13 03:59:01;;;;;;;;;;;;;;;17.11;46.81;100421.03;5022386;28;1910;-63
2023/06/13 04:01:26;;;;;;;;;;;;;;;16.81;46.99;100428.31;5022143;28;1171;-63
2023/06/13 04:03:52;;;;;;;;;;;;;;;16.86;46.29;100416.50;5036459;28;1306;-62
2023/06/13 04:06:17;;;;;;;;;;;;;;;16.67;46.42;100425.38;5036553;28;1118;-63
2023/06/13 04:08:43;;;;;;;;;;;;;;;16.77;46.34;100430.81;5036498;28;1190;-61
2023/06/13 04:11:08;;;;;;;;;;;;;;;17.09;47.40;100426.78;5035106;28;1258;-61
2023/06/13 04:13:34;;;;;;;;;;;;;;;16.82;46.88;100429.16;5036275;28;1004;-60
2023/06/13 04:16:00;;;;;;;;;;;;;;;16.73;46.55;100418.78;5034907;28;1285;-63
2023/06/13 04:18:26;;;;;;;;;;;;;;;16.57;45.96;100425.44;5035061;28;1979;-61
2023/06/13 04:20:53;;;;;;;;;;;;;;;16.62;45.62;100432.81;5034656;28;1391;-59
2023/06/13 04:23:19;;;;;;;;;;;;;;;16.39;45.53;100441.41;5034688;28;1098;-59
2023/06/13 04:25:44;;;;;;;;;;;;;;;16.50;45.32;100425.72;5035200;28;1181;-60
2023/06/13 04:28:13;;;;;;;;;;;;;;;16.57;45.01;100433.66;5034965;28;1118;-60
2023/06/13 04:30:46;;;;;;;;;;;;;;;17.13;46.59;100429.78;5036148;28;1214;-62
2023/06/13 04:33:16;;;;;;;;;;;;;;;16.74;46.68;100430.56;5028401;28;1091;-61
2023/06/13 04:35:44;;;;;;;;;;;;;;;16.62;46.18;100435.56;5025707;28;1223;-58
2023/06/13 04:38:13;;;;;;;;;;;;;;;16.76;46.38;100429.19;5035597;28;1971;-60
2023/06/13 04:40:39;;;;;;;;;;;;;;;17.12;46.97;100435.56;5036094;28;1128;-60
2023/06/13 04:43:04;;;;;;;;;;;;;;;16.80;47.20;100445.06;5036013;28;1139;-56
2023/06/13 04:45:30;;;;;;;;;;;;;;;17.68;47.68;100443.34;5035792;28;1035;-60
2023/06/13 04:47:57;;;;;;;;;;;;;;;17.19;48.01;100436.06;5036832;28;1056;-60
2023/06/13 04:50:24;;;;;;;;;;;;;;;18.69;48.47;100449.16;5055217;28;1290;-61
2023/06/13 04:52:53;;;;;;;;;;;;;;;18.72;49.70;100443.88;5055597;28;1052;-62
2023/06/13 04:55:21;;;;;;;;;;;;;;;17.87;49.77;100450.91;5056708;28;1196;-62
2023/06/13 04:57:49;;;;;;;;;;;;;;;18.71;48.68;100453.25;5059878;28;1886;-60
2023/06/13 05:00:15;;;;;;;;;;;;;;;18.09;50.09;100454.00;5050223;28;1025;-60
2023/06/13 05:02:41;;;;;;;;;;;;;;;17.81;50.84;100452.88;5059116;28;1044;-61
2023/06/13 05:05:07;;;;;;;;;;;;;;;17.65;51.01;100454.13;5059672;28;1188;-62
2023/06/13 05:07:34;;;;;;;;;;;;;;;17.56;51.23;100449.25;5042047;28;1036;-60
2023/06/13 05:10:03;;;;;;;;;;;;;;;17.37;51.57;100453.81;5058976;28;1020;-60
2023/06/13 05:12:29;;;;;;;;;;;;;;;17.27;51.83;100449.22;5059105;28;1071;-63
2023/06/13 05:14:54;;;;;;;;;;;;;;;17.18;52.07;100445.41;5041625;28;1040;-64
2023/06/13 05:17:20;;;;;;;;;;;;;;;17.12;52.09;100446.56;5059475;28;1942;-64
2023/06/13 05:19:46;;;;;;;;;;;;;;;17.04;52.36;100457.06;5059572;28;1052;-59
2023/06/13 05:22:12;;;;;;;;;;;;;;;16.96;52.42;100459.56;5058912;28;1111;-56
2023/06/13 05:24:37;;;;;;;;;;;;;;;16.88;52.42;100463.72;5059428;28;1148;-59
2023/06/13 05:27:03;;;;;;;;;;;;;;;16.82;52.61;100465.66;5054530;28;1214;-60
2023/06/13 05:29:29;;;;;;;;;;;;;;;16.77;52.77;100458.28;5050052;28;1064;-60
2023/06/13 05:31:54;;;;;;;;;;;;;;;16.70;52.87;100462.44;5057618;28;996;-57
2023/06/13 05:34:20;;;;;;;;;;;;;;;16.68;52.78;100467.41;5057911;28;955;-57
2023/06/13 05:36:46;;;;;;;;;;;;;;;16.55;53.01;100471.53;5058136;28;1983;-57
2023/06/13 05:39:12;;;;;;;;;;;;;;;16.54;53.00;100465.25;5059185;28;1194;-57
2023/06/13 05:41:39;;;;;;;;;;;;;;;16.56;53.01;100464.97;5058714;28;1164;-57
2023/06/13 05:44:05;;;;;;;;;;;;;;;16.47;53.18;100469.41;5059012;28;1064;-56
2023/06/13 05:46:30;;;;;;;;;;;;;;;16.45;53.30;100468.84;5058214;28;1242;-58
2023/06/13 05:48:56;;;;;;;;;;;;;;;16.41;53.03;100471.31;5058047;28;1198;-57
2023/06/13 05:51:21;;;;;;;;;;;;;;;16.31;53.23;100472.16;5057205;28;1044;-58
2023/06/13 05:53:47;;;;;;;;;;;;;;;16.25;53.51;100470.56;5057330;28;1079;-53
2023/06/13 05:56:12;;;;;;;;;;;;;;;16.30;53.12;100480.69;5057562;28;1020;-57
2023/06/13 05:58:38;;;;;;;;;;;;;;;16.23;53.46;100476.31;5056837;28;1968;-56
2023/06/13 06:01:03;;;;;;;;;;;;;;;16.23;53.27;100470.03;5056265;28;1270;-57
2023/06/13 06:03:29;;;;;;;;;;;;;;;16.11;53.49;100478.53;5056882;28;1438;-62
2023/06/13 06:05:55;;;;;;;;;;;;;;;16.11;53.52;100473.06;5056652;28;1204;-57
2023/06/13 06:08:20;;;;;;;;;;;;;;;16.02;53.55;100478.28;5056868;28;1187;-56
2023/06/13 06:10:46;;;;;;;;;;;;;;;16.07;53.63;100467.31;5056447;28;1566;-57
2023/06/13 06:13:11;;;;;;;;;;;;;;;16.05;53.41;100471.44;5057058;28;1152;-58
2023/06/13 06:15:37;;;;;;;;;;;;;;;15.99;53.72;100470.63;5057111;28;1120;-58
2023/06/13 06:18:02;;;;;;;;;;;;;;;15.94;53.86;100480.78;5044577;28;1989;-58
2023/06/13 06:20:28;;;;;;;;;;;;;;;15.94;53.60;100467.88;5056494;28;1057;-57
2023/06/13 06:22:53;;;;;;;;;;;;;;;15.90;53.63;100477.75;5056336;28;1132;-58
2023/06/13 06:25:19;;;;;;;;;;;;;;;15.89;53.67;100459.66;5057041;28;1107;-57
2023/06/13 06:27:48;;;;;;;;;;;;;;;15.84;53.87;100465.97;5056690;28;1128;-56
2023/06/13 06:30:14;;;;;;;;;;;;;;;15.83;53.87;100466.25;5056806;28;1004;-57
2023/06/13 06:32:40;;;;;;;;;;;;;;;15.86;53.73;100463.78;5056929;28;1163;-57
2023/06/13 06:35:05;;;;;;;;;;;;;;;15.76;53.88;100465.69;5054276;28;1258;-57
2023/06/13 06:37:31;;;;;;;;;;;;;;;15.77;53.83;100470.88;5047013;28;1917;-59
2023/06/13 06:39:57;;;;;;;;;;;;;;;16.20;53.58;100470.56;5056696;28;1428;-59
2023/06/13 06:42:22;;;;;;;;;;;;;;;17.51;51.50;100470.47;5056829;28;1191;-58
2023/06/13 06:44:58;;;;;;;;;;;;;;;16.68;53.37;100468.19;5036271;28;1279;-57
2023/06/13 06:47:25;;;;;;;;;;;;;;;16.41;54.18;100469.41;5052533;28;1248569;-53
2023/06/13 06:49:50;;;;;;;;;;;;;;;16.28;54.36;100455.47;5058062;28;1386;-58
2023/06/13 06:52:16;;;;;;;;;;;;;;;16.17;54.53;100452.75;5057632;28;1055;-58
2023/06/13 06:54:41;;;;;;;;;;;;;;;16.12;54.32;100457.41;5056334;28;1108;-53
2023/06/13 06:57:07;;;;;;;;;;;;;;;16.12;54.33;100452.75;5057717;28;1906;-54
2023/06/13 06:59:32;;;;;;;;;;;;;;;16.01;54.37;100457.44;5057462;28;1055;-56
2023/06/13 07:01:58;;;;;;;;;;;;;;;15.95;54.37;100458.56;5053911;28;1276;-56
2023/06/13 07:04:23;;;;;;;;;;;;;;;15.94;54.43;100456.91;5053845;28;1125;-58
2023/06/13 07:06:49;;;;;;;;;;;;;;;15.89;54.55;100455.00;5056562;28;1800;-58
2023/06/13 07:09:14;;;;;;;;;;;;;;;15.88;54.37;100452.56;5057381;28;1186;-58
2023/06/13 07:11:40;;;;;;;;;;;;;;;15.87;54.40;100456.38;5056775;28;1207;-57
2023/06/13 07:14:05;;;;;;;;;;;;;;;15.77;54.42;100454.44;5057284;28;1378;-58
2023/06/13 07:16:31;;;;;;;;;;;;;;;15.78;54.35;100453.34;5057661;28;1207;-59
2023/06/13 07:18:56;;;;;;;;;;;;;;;16.28;53.88;100448.03;5056135;28;2061;-60
2023/06/13 07:21:22;;;;;;;;;;;;;;;17.19;52.51;100447.88;5057352;28;1077;-60
2023/06/13 07:23:47;;;;;;;;;;;;;;;16.51;54.10;100448.50;5057224;28;1147;-60
2023/06/13 07:26:13;;;;;;;;;;;;;;;16.28;54.77;100444.50;5057509;28;1012;-60
2023/06/13 07:28:39;;;;;;;;;;;;;;;16.18;54.79;100439.84;5056682;28;1385;-62
2023/06/13 07:31:04;;;;;;;;;;;;;;;16.11;54.63;100440.16;5056620;28;1226;-60
2023/06/13 07:33:30;;;;;;;;;;;;;;;16.02;54.80;100430.84;5052101;28;1326;-61
2023/06/13 07:35:56;;;;;;;;;;;;;;;16.05;54.51;100433.84;5056220;28;1106;-63
2023/06/13 07:38:22;;;;;;;;;;;;;;;15.94;54.90;100437.72;5056967;28;1998;-63
2023/06/13 07:40:47;;;;;;;;;;;;;;;15.87;54.62;100434.44;5056862;28;1040;-61
2023/06/13 07:43:13;;;;;;;;;;;;;;;15.86;54.86;100432.78;5046885;28;1136;-61
2023/06/13 07:45:38;;;;;;;;;;;;;;;15.89;54.35;100443.19;5054161;28;1159;-61
2023/06/13 07:48:04;;;;;;;;;;;;;;;16.80;53.72;100436.84;5053709;28;1167;-61
2023/06/13 07:50:29;;;;;;;;;;;;;;;17.18;53.06;100434.44;5056752;28;1067;-60
2023/06/13 07:52:55;;;;;;;;;;;;;;;16.56;54.57;100432.03;5056529;28;1132;-63
2023/06/13 07:55:21;;;;;;;;;;;;;;;16.38;54.70;100430.72;5056254;28;1179;-59
2023/06/13 07:57:47;;;;;;;;;;;;;;;16.25;55.19;100432.16;5056265;28;1910;-62
2023/06/13 08:00:15;;;;;;;;;;;;;;;16.18;54.96;100437.91;5053791;28;1156;-62
2023/06/13 08:02:41;;;;;;;;;;;;;;;16.12;54.94;100433.56;5056459;28;1028;-62
2023/06/13 08:05:06;;;;;;;;;;;;;;;16.08;54.79;100427.81;5056918;28;1017;-60
2023/06/13 08:07:32;;;;;;;;;;;;;;;16.02;54.84;100434.41;5055964;28;1052;-59
2023/06/13 08:09:57;;;;;;;;;;;;;;;15.99;54.89;100432.22;5056344;28;1079;-60
2023/06/13 08:12:23;;;;;;;;;;;;;;;15.95;54.75;100425.66;5055970;28;914;-61
2023/06/13 08:14:48;;;;;;;;;;;;;;;15.91;54.71;100430.88;5055861;28;1210;-61
2023/06/13 08:17:14;;;;;;;;;;;;;;;15.89;54.75;100413.03;5056050;28;1905;-58
2023/06/13 08:19:39;;;;;;;;;;;;;;;15.86;54.89;100421.81;5056419;28;1056;-57
2023/06/13 08:22:05;;;;;;;;;;;;;;;15.83;54.59;100414.97;5049028;28;1071;-56
2023/06/13 08:24:30;;;;;;;;;;;;;;;15.85;54.71;100409.22;5055841;28;1116;-57
2023/06/13 08:26:57;;;;;;;;;;;;;;;15.77;54.85;100415.22;5056174;28;1136;-57
2023/06/13 08:29:25;;;;;;;;;;;;;;;16.64;54.15;100414.97;5055746;28;1140;-58
2023/06/13 08:31:51;;;;;;;;;;;;;;;17.27;53.40;100411.53;5056211;28;1096;-58
2023/06/13 08:34:16;;;;;;;;;;;;;;;16.52;55.01;100408.97;5038292;28;1087;-58
2023/06/13 08:36:42;;;;;;;;;;;;;;;16.31;55.24;100403.56;5055904;28;1213;-57
2023/06/13 08:39:07;;;;;;;;;;;;;;;16.17;55.49;100399.81;5055797;28;1988;-57
2023/06/13 08:41:33;;;;;;;;;;;;;;;16.13;55.54;100398.72;5055875;28;1282;-59
2023/06/13 08:43:58;;;;;;;;;;;;;;;16.10;55.16;100399.28;5055991;28;1183;-60
2023/06/13 08:46:28;;;;;;;;;;;;;;;16.11;55.05;100406.41;5056714;28;1068;-59
2023/06/13 08:48:53;;;;;;;;;;;;;;;15.96;55.17;100399.84;5055379;28;1123;-58
2023/06/13 08:51:20;;;;;;;;;;;;;;;15.97;54.96;100400.69;5042505;28;1446;-58
2023/06/13 08:53:56;;;;;;;;;;;;;;;15.95;55.04;100402.88;5038097;28;1291;-58
2023/06/13 08:56:22;;;;;;;;;;;;;;;15.89;55.19;100399.34;5039496;28;1067;-58
2023/06/13 08:58:49;;;;;;;;;;;;;;;15.85;54.95;100396.34;5036812;28;1937;-58
2023/06/13 09:01:17;;;;;;;;;;;;;;;15.86;54.91;100400.69;5028319;28;961;-60
2023/06/13 09:03:42;;;;;;;;;;;;;;;15.82;55.07;100396.06;5034211;28;1049;-60
2023/06/13 09:06:08;;;;;;;;;;;;;;;17.09;54.00;100404.81;5038002;28;1033;-60
2023/06/13 09:08:34;;;;;;;;;;;;;;;17.05;54.33;100392.75;5038192;28;1107;-63
2023/06/13 09:11:00;;;;;;;;;;;;;;;16.55;55.47;100389.19;5037767;28;1041;-62
2023/06/13 09:13:25;;;;;;;;;;;;;;;16.33;55.72;100392.34;5054991;28;1140;-61
2023/06/13 09:15:51;;;;;;;;;;;;;;;16.30;55.40;100393.72;5056205;28;1064;-61
2023/06/13 09:18:16;;;;;;;;;;;;;;;16.20;55.41;100382.78;5037996;28;1914;-61
2023/06/13 09:20:42;;;;;;;;;;;;;;;16.13;55.44;100383.09;5037915;28;1064;-61
2023/06/13 09:23:07;;;;;;;;;;;;;;;16.08;55.54;100381.19;5055108;28;1095;-62
2023/06/13 09:25:34;;;;;;;;;;;;;;;16.06;55.23;100377.91;5055574;28;925;-59
2023/06/13 09:28:20;;;;;;;;;;;;;;;16.04;55.13;100384.75;5058687;28;1063;-61
2023/06/13 09:30:45;;;;;;;;;;;;;;;15.92;55.57;100379.56;5055364;28;1296;-60
2023/06/13 09:33:10;;;;;;;;;;;;;;;15.94;55.12;100385.63;5054559;28;1075;-60
2023/06/13 09:35:36;;;;;;;;;;;;;;;15.86;55.46;100376.03;5055665;28;1023;-61
2023/06/13 09:38:01;;;;;;;;;;;;;;;15.87;55.22;100380.41;5055288;28;1975;-61
2023/06/13 09:40:27;;;;;;;;;;;;;;;15.79;55.10;100377.41;5055295;28;1127;-60
2023/06/13 09:42:52;;;;;;;;;;;;;;;15.89;55.14;100380.13;5058395;28;1164;-62
2023/06/13 09:45:18;;;;;;;;;;;;;;;16.83;54.39;100365.72;5041169;28;1028;-62
2023/06/13 09:47:43;;;;;;;;;;;;;;;17.21;53.98;100378.94;5041253;28;1200;-59
2023/06/13 09:50:10;;;;;;;;;;;;;;;16.60;55.38;100367.22;5058567;28;1052;-60
2023/06/13 09:52:35;;;;;;;;;;;;;;;16.40;55.67;100368.16;5041128;28;1258;-60
2023/06/13 09:55:01;;;;;;;;;;;;;;;16.25;55.77;100366.31;5045127;28;1009;-58
2023/06/13 09:57:26;;;;;;;;;;;;;;;16.22;55.54;100358.63;5058586;28;1911;-59
2023/06/13 09:59:52;;;;;;;;;;;;;;;16.14;55.57;100361.97;5058465;28;1195;-59
2023/06/13 10:02:19;;;;;;;;;;;;;;;16.08;55.44;100361.97;5048899;28;910;-59
2023/06/13 10:04:45;;;;;;;;;;;;;;;16.05;55.59;100362.53;5056170;28;1176;-59
2023/06/13 10:07:11;;;;;;;;;;;;;;;16.00;55.57;100356.25;5058729;28;1060;-58
2023/06/13 10:09:36;;;;;;;;;;;;;;;15.99;55.53;100366.41;5058835;28;1140;-58
2023/06/13 10:12:02;;;;;;;;;;;;;;;15.91;55.54;100356.84;5058225;28;1461;-58
2023/06/13 10:14:28;;;;;;;;;;;;;;;15.92;55.39;100360.38;5040416;28;881;-59
2023/06/13 10:16:58;;;;;;;;;;;;;;;15.88;55.43;100353.84;5040766;28;1987;-59
2023/06/13 10:19:23;;;;;;;;;;;;;;;15.89;55.22;100352.72;5058801;28;1041;-59
2023/06/13 10:21:49;;;;;;;;;;;;;;;15.79;55.52;100356.31;5040860;28;1211;-58
2023/06/13 10:24:14;;;;;;;;;;;;;;;15.78;55.51;100356.56;5054784;28;1148;-59
2023/06/13 10:26:40;;;;;;;;;;;;;;;15.78;55.32;100348.34;5057110;28;1015;-59
2023/06/13 10:29:09;;;;;;;;;;;;;;;17.05;54.49;100348.00;5058655;28;1136;-59
2023/06/13 10:31:52;;;;;;;;;;;;;;;16.87;55.38;100352.22;5058550;28;1115;-59
2023/06/13 10:34:18;;;;;;;;;;;;;;;16.43;56.13;100348.38;5058492;28;1012;-59
2023/06/13 10:37:03;;;;;;;;;;;;;;;16.27;56.05;100341.31;5059680;28;1366;-57
2023/06/13 10:39:37;;;;;;;;;;;;;;;16.15;56.30;100339.75;5067031;28;1055;-60
2023/06/13 10:42:21;;;;;;;;;;;;;;;16.12;55.92;100336.72;5057392;28;1099;-61
2023/06/13 10:44:55;;;;;;;;;;;;;;;16.01;55.79;100331.28;5058601;28;1138;-60
2023/06/13 10:47:22;;;;;;;;;;;;;;;15.99;55.87;100339.00;5058062;28;1063;-60
2023/06/13 10:49:48;;;;;;;;;;;;;;;15.97;55.52;100329.41;5057363;28;1016;-58
2023/06/13 10:52:13;;;;;;;;;;;;;;;15.97;55.79;100329.41;5057347;28;1084;-61
2023/06/13 10:54:41;;;;;;;;;;;;;;;15.99;55.64;100332.66;5056982;28;1000;-59
2023/06/13 10:57:07;;;;;;;;;;;;;;;16.29;56.09;100320.75;5058045;28;1913;-58
2023/06/13 10:59:36;;;;;;;;;;;;;;;17.16;55.03;100324.00;5058178;28;1116;-58
2023/06/13 11:02:02;;;;;;;;;;;;;;;16.54;56.36;100327.19;5057380;28;881;-61
2023/06/13 11:04:27;;;;;;;;;;;;;;;16.34;56.55;100325.38;5057443;28;1155;-62
2023/06/13 11:06:54;;;;;;;;;;;;;;;16.31;56.24;100318.53;5056786;28;1071;-58
2023/06/13 11:09:26;;;;;;;;;;;;;;;16.20;56.10;100325.16;5039817;28;1332;-60
2023/06/13 11:11:52;;;;;;;;;;;;;;;16.18;56.35;100325.44;5045102;28;1027;-58
2023/06/13 11:14:27;;;;;;;;;;;;;;;16.21;56.34;100326.81;5055945;28;1413;-59
2023/06/13 11:16:53;;;;;;;;;;;;;;;16.13;56.43;100324.66;5057417;28;1195;-62
2023/06/13 11:19:22;;;;;;;;;;;;;;;16.09;56.07;100324.41;5051294;28;1981;-59
2023/06/13 11:21:59;;;;;;;;;;;;;;;16.03;56.00;100317.28;5050810;28;1187;-63
2023/06/13 11:24:28;;;;;;;;;;;;;;;16.04;56.45;100308.78;5040088;28;1429;-58
2023/06/13 11:26:54;;;;;;;;;;;;;;;16.09;56.33;100321.69;5054375;28;1068;-62
2023/06/13 11:29:20;;;;;;;;;;;;;;;16.01;56.12;100320.31;5057308;28;1409;-61
2023/06/13 11:31:45;;;;;;;;;;;;;;;15.98;55.97;100320.88;5036090;28;1346;-59
2023/06/13 11:34:17;;;;;;;;;;;;;;;15.94;56.01;100322.56;5038072;28;1120;-58
2023/06/13 11:36:44;;;;;;;;;;;;;;;15.94;55.54;100319.81;5056933;28;1106;-61
2023/06/13 11:39:13;;;;;;;;;;;;;;;15.87;55.79;100324.78;5056734;28;1925;-61
2023/06/13 11:41:39;;;;;;;;;;;;;;;15.89;55.56;100323.41;5054963;28;1385;-60
2023/06/13 11:44:05;;;;;;;;;;;;;;;15.86;55.73;100318.44;5056658;28;1087;-63
2023/06/13 11:46:30;;;;;;;;;;;;;;;15.76;55.54;100312.19;5054192;28;1410;-63
2023/06/13 11:48:56;;;;;;;;;;;;;;;15.74;55.58;100307.78;5038584;28;1200;-57
2023/06/13 11:51:21;;;;;;;;;;;;;;;15.79;55.45;100311.59;5056846;28;895;-61
2023/06/13 11:53:47;;;;;;;;;;;;;;;15.80;55.44;100291.34;5056069;28;1036;-58
2023/06/13 11:56:12;;;;;;;;;;;;;;;15.84;55.25;100303.41;5056144;28;1116;-58
2023/06/13 11:58:38;;;;;;;;;;;;;;;16.23;55.60;100302.69;5056191;28;1914;-59
2023/06/13 12:01:04;;;;;;;;;;;;;;;17.49;55.30;100302.25;5056516;28;1206;-58
2023/06/13 12:03:32;;;;;;;;;;;;;;;16.98;56.66;100306.31;5029282;28;986;-59
2023/06/13 12:05:58;;;;;;;;;;;;;;;16.64;57.10;100302.41;5037374;28;1155;-62
2023/06/13 12:08:23;;;;;;;;;;;;;;;16.50;56.86;100304.16;5038721;28;1040;-64
2023/06/13 12:10:49;;;;;;;;;;;;;;;16.45;56.39;100299.50;5056344;28;1127;-58
2023/06/13 12:13:15;;;;;;;;;;;;;;;16.36;56.25;100302.03;5056176;28;1032;-59
2023/06/13 12:15:40;;;;;;;;;;;;;;;16.22;56.25;100292.81;5056352;28;1060;-59
2023/06/13 12:18:06;;;;;;;;;;;;;;;16.20;56.09;100298.56;5056074;28;1972;-59
2023/06/13 12:20:36;;;;;;;;;;;;;;;16.12;56.09;100292.84;5056378;28;1073;-60
2023/06/13 12:23:01;;;;;;;;;;;;;;;16.14;55.87;100294.19;5047495;28;1215;-64
2023/06/13 12:25:33;;;;;;;;;;;;;;;16.15;55.72;100293.09;5040328;28;1171;-62
2023/06/13 12:28:01;;;;;;;;;;;;;;;16.14;55.59;100291.47;5042538;28;1475;-63
2023/06/13 12:30:28;;;;;;;;;;;;;;;16.12;55.65;100296.41;5056605;28;1107;-61
2023/06/13 12:32:57;;;;;;;;;;;;;;;16.35;55.87;100294.91;5055953;28;1004;-59
2023/06/13 12:35:24;;;;;;;;;;;;;;;17.66;55.61;100288.88;5042819;28;1036;-60
2023/06/13 12:37:58;;;;;;;;;;;;;;;17.06;56.51;100289.22;5055474;28;1971;-65
2023/06/13 12:40:29;;;;;;;;;;;;;;;16.77;56.70;100296.28;5043113;28;1060;-63
2023/06/13 12:42:56;;;;;;;;;;;;;;;16.55;56.71;100290.38;5055956;28;1020;-61
2023/06/13 12:45:21;;;;;;;;;;;;;;;16.40;56.69;100294.06;5055859;28;1179;-63